Terminal Aerodrome Forecast
Issued by NWS Wilmington, OH

Current Version | Previous Version | Graphics & Text | Print | Product List | Glossary On
Versions: 1 2 3 4 5 6 7 8 9 10 11 12 13 14 15 16 17 18 19 20 21 22 23 24 25 26 27 28 29 30 31 32
000
FTUS41 KILN 181400 AAD
TAFCVG
TAF AMD
KCVG 181457Z 1815/1918 00000KT P6SM SCT015 OVC035
     FM181900 31004KT P6SM VCSH BKN035
     FM190100 VRB03KT P6SM BKN100
     FM190600 19003KT 5SM BR BKN250
     FM190800 00000KT 2SM BR BKN250
     FM191200 23005KT P6SM BKN250=

USA.gov is the U.S. government's official web portal to all federal, state and local government web resources and services.